sensor_id;sensor_type;location;lat;lon;timestamp;P1;durP1;ratioP1;P2;durP2;ratioP2
2944;SDS011;1482;51.398;7.128;2023-06-24T00:00:02;8.00;;;7.20;;
2944;SDS011;1482;51.398;7.128;2023-06-24T00:02:32;8.50;;;7.10;;
2944;SDS011;1482;51.398;7.128;2023-06-24T00:04:59;7.70;;;7.00;;
2944;SDS011;1482;51.398;7.128;2023-06-24T00:07:25;8.70;;;6.10;;
2944;SDS011;1482;51.398;7.128;2023-06-24T00:09:51;7.93;;;7.03;;
2944;SDS011;1482;51.398;7.128;2023-06-24T00:12:17;8.73;;;7.87;;
2944;SDS011;1482;51.398;7.128;2023-06-24T00:14:44;9.10;;;7.00;;
2944;SDS011;1482;51.398;7.128;2023-06-24T00:17:11;7.07;;;6.43;;
2944;SDS011;1482;51.398;7.128;2023-06-24T00:19:36;7.03;;;6.33;;
2944;SDS011;1482;51.398;7.128;2023-06-24T00:22:02;10.80;;;7.67;;
2944;SDS011;1482;51.398;7.128;2023-06-24T00:24:28;10.77;;;6.87;;
2944;SDS011;1482;51.398;7.128;2023-06-24T00:26:55;10.67;;;6.80;;
2944;SDS011;1482;51.398;7.128;2023-06-24T00:29:20;7.57;;;6.73;;
2944;SDS011;1482;51.398;7.128;2023-06-24T00:31:46;7.50;;;6.70;;
2944;SDS011;1482;51.398;7.128;2023-06-24T00:34:12;8.87;;;7.47;;
2944;SDS011;1482;51.398;7.128;2023-06-24T00:36:38;8.13;;;7.03;;
2944;SDS011;1482;51.398;7.128;2023-06-24T00:39:06;7.93;;;7.13;;
2944;SDS011;1482;51.398;7.128;2023-06-24T00:41:32;10.70;;;7.50;;
2944;SDS011;1482;51.398;7.128;2023-06-24T00:43:59;8.67;;;7.87;;
2944;SDS011;1482;51.398;7.128;2023-06-24T00:46:25;11.20;;;8.70;;
2944;SDS011;1482;51.398;7.128;2023-06-24T00:48:52;7.10;;;6.50;;
2944;SDS011;1482;51.398;7.128;2023-06-24T00:51:18;7.57;;;6.80;;
2944;SDS011;1482;51.398;7.128;2023-06-24T00:53:46;8.37;;;7.53;;
2944;SDS011;1482;51.398;7.128;2023-06-24T00:56:13;8.67;;;7.80;;
2944;SDS011;1482;51.398;7.128;2023-06-24T00:58:39;7.80;;;7.00;;
2944;SDS011;1482;51.398;7.128;2023-06-24T01:01:06;13.07;;;8.63;;
2944;SDS011;1482;51.398;7.128;2023-06-24T01:03:33;7.37;;;6.53;;
2944;SDS011;1482;51.398;7.128;2023-06-24T01:05:59;8.63;;;6.90;;
2944;SDS011;1482;51.398;7.128;2023-06-24T01:08:25;9.40;;;7.50;;
2944;SDS011;1482;51.398;7.128;2023-06-24T01:10:51;8.17;;;6.97;;
2944;SDS011;1482;51.398;7.128;2023-06-24T01:13:17;9.03;;;7.50;;
2944;SDS011;1482;51.398;7.128;2023-06-24T01:15:42;9.67;;;8.37;;
2944;SDS011;1482;51.398;7.128;2023-06-24T01:23:25;8.37;;;7.47;;
2944;SDS011;1482;51.398;7.128;2023-06-24T01:26:21;10.83;;;8.47;;
2944;SDS011;1482;51.398;7.128;2023-06-24T01:31:57;8.10;;;7.30;;
2944;SDS011;1482;51.398;7.128;2023-06-24T01:34:32;8.40;;;7.50;;
2944;SDS011;1482;51.398;7.128;2023-06-24T01:37:13;8.50;;;7.43;;
2944;SDS011;1482;51.398;7.128;2023-06-24T01:40:05;16.87;;;9.07;;
2944;SDS011;1482;51.398;7.128;2023-06-24T01:42:34;8.30;;;7.50;;
2944;SDS011;1482;51.398;7.128;2023-06-24T01:45:06;7.70;;;7.00;;
2944;SDS011;1482;51.398;7.128;2023-06-24T01:47:45;8.20;;;7.40;;
2944;SDS011;1482;51.398;7.128;2023-06-24T01:50:13;8.00;;;7.13;;
2944;SDS011;1482;51.398;7.128;2023-06-24T01:52:44;8.47;;;7.67;;
2944;SDS011;1482;51.398;7.128;2023-06-24T01:55:12;9.43;;;7.80;;
2944;SDS011;1482;51.398;7.128;2023-06-24T01:57:41;8.43;;;7.60;;
2944;SDS011;1482;51.398;7.128;2023-06-24T02:00:08;10.67;;;9.70;;
2944;SDS011;1482;51.398;7.128;2023-06-24T02:02:35;8.90;;;8.00;;
2944;SDS011;1482;51.398;7.128;2023-06-24T02:05:02;8.73;;;7.90;;
2944;SDS011;1482;51.398;7.128;2023-06-24T02:07:30;15.23;;;7.13;;
2944;SDS011;1482;51.398;7.128;2023-06-24T02:09:57;9.57;;;7.17;;
2944;SDS011;1482;51.398;7.128;2023-06-24T02:12:25;8.37;;;7.60;;
2944;SDS011;1482;51.398;7.128;2023-06-24T02:14:53;9.47;;;8.47;;
2944;SDS011;1482;51.398;7.128;2023-06-24T02:17:20;9.83;;;8.33;;
2944;SDS011;1482;51.398;7.128;2023-06-24T02:19:49;11.20;;;7.90;;
2944;SDS011;1482;51.398;7.128;2023-06-24T02:22:16;10.77;;;8.70;;
2944;SDS011;1482;51.398;7.128;2023-06-24T02:24:43;8.93;;;7.93;;
2944;SDS011;1482;51.398;7.128;2023-06-24T02:27:09;11.63;;;9.80;;
2944;SDS011;1482;51.398;7.128;2023-06-24T02:29:37;13.43;;;8.20;;
2944;SDS011;1482;51.398;7.128;2023-06-24T02:32:04;8.07;;;7.37;;
2944;SDS011;1482;51.398;7.128;2023-06-24T02:34:30;14.00;;;8.40;;
2944;SDS011;1482;51.398;7.128;2023-06-24T02:36:56;11.07;;;8.10;;
2944;SDS011;1482;51.398;7.128;2023-06-24T02:39:22;11.00;;;7.60;;
2944;SDS011;1482;51.398;7.128;2023-06-24T02:41:48;9.73;;;8.70;;
2944;SDS011;1482;51.398;7.128;2023-06-24T02:44:14;10.27;;;8.30;;
2944;SDS011;1482;51.398;7.128;2023-06-24T02:46:40;11.17;;;8.00;;
2944;SDS011;1482;51.398;7.128;2023-06-24T02:49:08;22.97;;;8.80;;
2944;SDS011;1482;51.398;7.128;2023-06-24T02:51:35;7.63;;;6.47;;
2944;SDS011;1482;51.398;7.128;2023-06-24T02:54:03;8.13;;;6.33;;
2944;SDS011;1482;51.398;7.128;2023-06-24T02:56:30;19.90;;;7.80;;
2944;SDS011;1482;51.398;7.128;2023-06-24T02:58:56;14.50;;;7.13;;
2944;SDS011;1482;51.398;7.128;2023-06-24T03:01:22;7.80;;;7.10;;
2944;SDS011;1482;51.398;7.128;2023-06-24T03:03:54;8.97;;;7.43;;
2944;SDS011;1482;51.398;7.128;2023-06-24T03:06:20;9.00;;;7.07;;
2944;SDS011;1482;51.398;7.128;2023-06-24T03:08:47;7.50;;;6.87;;
2944;SDS011;1482;51.398;7.128;2023-06-24T03:11:14;8.33;;;6.87;;
2944;SDS011;1482;51.398;7.128;2023-06-24T03:13:41;8.83;;;7.07;;
2944;SDS011;1482;51.398;7.128;2023-06-24T03:16:06;7.73;;;7.03;;
2944;SDS011;1482;51.398;7.128;2023-06-24T03:18:37;7.50;;;6.53;;
2944;SDS011;1482;51.398;7.128;2023-06-24T03:21:04;9.83;;;7.67;;
2944;SDS011;1482;51.398;7.128;2023-06-24T03:23:30;8.23;;;7.43;;
2944;SDS011;1482;51.398;7.128;2023-06-24T03:25:56;9.37;;;6.87;;
2944;SDS011;1482;51.398;7.128;2023-06-24T03:28:21;9.27;;;7.40;;
2944;SDS011;1482;51.398;7.128;2023-06-24T03:30:47;8.13;;;6.63;;
2944;SDS011;1482;51.398;7.128;2023-06-24T03:33:12;9.30;;;6.23;;
2944;SDS011;1482;51.398;7.128;2023-06-24T03:35:41;7.70;;;6.87;;
2944;SDS011;1482;51.398;7.128;2023-06-24T03:38:07;8.70;;;6.50;;
2944;SDS011;1482;51.398;7.128;2023-06-24T03:40:33;9.23;;;7.10;;
2944;SDS011;1482;51.398;7.128;2023-06-24T03:42:58;8.07;;;7.37;;
2944;SDS011;1482;51.398;7.128;2023-06-24T03:45:24;8.37;;;6.67;;
2944;SDS011;1482;51.398;7.128;2023-06-24T03:47:49;8.73;;;7.13;;
2944;SDS011;1482;51.398;7.128;2023-06-24T03:50:15;11.13;;;8.00;;
2944;SDS011;1482;51.398;7.128;2023-06-24T03:52:40;7.43;;;6.67;;
2944;SDS011;1482;51.398;7.128;2023-06-24T03:55:06;7.50;;;6.67;;
2944;SDS011;1482;51.398;7.128;2023-06-24T03:57:32;8.03;;;7.23;;
2944;SDS011;1482;51.398;7.128;2023-06-24T03:59:57;8.50;;;7.47;;
2944;SDS011;1482;51.398;7.128;2023-06-24T04:02:23;9.83;;;7.30;;
2944;SDS011;1482;51.398;7.128;2023-06-24T04:04:48;10.70;;;7.63;;
2944;SDS011;1482;51.398;7.128;2023-06-24T04:07:17;7.83;;;6.40;;
2944;SDS011;1482;51.398;7.128;2023-06-24T04:09:53;7.77;;;6.20;;
2944;SDS011;1482;51.398;7.128;2023-06-24T04:12:20;9.63;;;7.77;;
2944;SDS011;1482;51.398;7.128;2023-06-24T04:14:45;8.27;;;7.33;;
2944;SDS011;1482;51.398;7.128;2023-06-24T04:17:11;7.20;;;6.40;;
2944;SDS011;1482;51.398;7.128;2023-06-24T04:19:36;9.40;;;7.10;;
2944;SDS011;1482;51.398;7.128;2023-06-24T04:22:02;9.10;;;6.90;;
2944;SDS011;1482;51.398;7.128;2023-06-24T04:24:27;8.00;;;6.80;;
2944;SDS011;1482;51.398;7.128;2023-06-24T04:26:53;10.13;;;6.67;;
2944;SDS011;1482;51.398;7.128;2023-06-24T04:29:20;8.47;;;6.30;;
2944;SDS011;1482;51.398;7.128;2023-06-24T04:31:45;14.50;;;7.27;;
2944;SDS011;1482;51.398;7.128;2023-06-24T04:34:11;12.03;;;6.23;;
2944;SDS011;1482;51.398;7.128;2023-06-24T04:36:36;9.93;;;7.17;;
2944;SDS011;1482;51.398;7.128;2023-06-24T04:39:02;7.43;;;6.63;;
2944;SDS011;1482;51.398;7.128;2023-06-24T04:41:27;8.60;;;7.00;;
2944;SDS011;1482;51.398;7.128;2023-06-24T04:43:53;7.30;;;6.67;;
2944;SDS011;1482;51.398;7.128;2023-06-24T04:46:18;7.07;;;6.23;;
2944;SDS011;1482;51.398;7.128;2023-06-24T04:48:44;7.20;;;5.87;;
2944;SDS011;1482;51.398;7.128;2023-06-24T04:51:09;7.33;;;6.70;;
2944;SDS011;1482;51.398;7.128;2023-06-24T04:53:35;7.13;;;6.43;;
2944;SDS011;1482;51.398;7.128;2023-06-24T04:56:00;5.77;;;5.27;;
2944;SDS011;1482;51.398;7.128;2023-06-24T04:58:26;6.60;;;6.00;;
2944;SDS011;1482;51.398;7.128;2023-06-24T05:00:51;9.10;;;5.80;;
2944;SDS011;1482;51.398;7.128;2023-06-24T05:03:18;10.80;;;9.70;;
2944;SDS011;1482;51.398;7.128;2023-06-24T05:05:44;8.03;;;5.80;;
2944;SDS011;1482;51.398;7.128;2023-06-24T05:08:09;11.60;;;6.60;;
2944;SDS011;1482;51.398;7.128;2023-06-24T05:10:35;8.13;;;5.53;;
2944;SDS011;1482;51.398;7.128;2023-06-24T05:13:00;9.57;;;6.53;;
2944;SDS011;1482;51.398;7.128;2023-06-24T05:15:26;6.67;;;6.03;;
2944;SDS011;1482;51.398;7.128;2023-06-24T05:17:51;7.70;;;7.00;;
2944;SDS011;1482;51.398;7.128;2023-06-24T05:20:17;6.37;;;5.87;;
2944;SDS011;1482;51.398;7.128;2023-06-24T05:22:43;7.80;;;5.80;;
2944;SDS011;1482;51.398;7.128;2023-06-24T05:25:08;6.70;;;6.00;;
2944;SDS011;1482;51.398;7.128;2023-06-24T05:27:34;6.00;;;5.40;;
2944;SDS011;1482;51.398;7.128;2023-06-24T05:29:59;6.47;;;5.80;;
2944;SDS011;1482;51.398;7.128;2023-06-24T05:32:25;6.90;;;6.13;;
2944;SDS011;1482;51.398;7.128;2023-06-24T05:34:51;6.47;;;5.97;;
2944;SDS011;1482;51.398;7.128;2023-06-24T05:37:16;10.67;;;5.93;;
2944;SDS011;1482;51.398;7.128;2023-06-24T05:39:42;5.77;;;5.27;;
2944;SDS011;1482;51.398;7.128;2023-06-24T05:42:07;9.40;;;5.80;;
2944;SDS011;1482;51.398;7.128;2023-06-24T05:44:33;5.93;;;5.33;;
2944;SDS011;1482;51.398;7.128;2023-06-24T05:46:58;7.10;;;5.70;;
2944;SDS011;1482;51.398;7.128;2023-06-24T05:49:24;7.13;;;6.43;;
2944;SDS011;1482;51.398;7.128;2023-06-24T05:51:50;8.57;;;7.23;;
2944;SDS011;1482;51.398;7.128;2023-06-24T05:54:15;10.60;;;8.23;;
2944;SDS011;1482;51.398;7.128;2023-06-24T05:56:41;8.80;;;7.07;;
2944;SDS011;1482;51.398;7.128;2023-06-24T05:59:06;9.27;;;8.37;;
2944;SDS011;1482;51.398;7.128;2023-06-24T06:01:32;7.57;;;6.80;;
2944;SDS011;1482;51.398;7.128;2023-06-24T06:03:57;14.77;;;7.77;;
2944;SDS011;1482;51.398;7.128;2023-06-24T06:06:23;10.03;;;6.97;;
2944;SDS011;1482;51.398;7.128;2023-06-24T06:08:48;8.63;;;7.73;;
2944;SDS011;1482;51.398;7.128;2023-06-24T06:11:14;9.03;;;8.13;;
2944;SDS011;1482;51.398;7.128;2023-06-24T06:13:39;13.40;;;8.73;;
2944;SDS011;1482;51.398;7.128;2023-06-24T06:16:05;9.20;;;8.30;;
2944;SDS011;1482;51.398;7.128;2023-06-24T06:18:31;11.20;;;9.70;;
2944;SDS011;1482;51.398;7.128;2023-06-24T06:20:56;9.30;;;8.40;;
2944;SDS011;1482;51.398;7.128;2023-06-24T06:23:22;10.30;;;9.30;;
2944;SDS011;1482;51.398;7.128;2023-06-24T06:25:47;10.87;;;9.73;;
2944;SDS011;1482;51.398;7.128;2023-06-24T06:28:13;10.77;;;9.70;;
2944;SDS011;1482;51.398;7.128;2023-06-24T06:30:38;12.57;;;9.47;;
2944;SDS011;1482;51.398;7.128;2023-06-24T06:33:04;10.40;;;9.40;;
2944;SDS011;1482;51.398;7.128;2023-06-24T06:35:29;11.47;;;10.37;;
2944;SDS011;1482;51.398;7.128;2023-06-24T06:37:56;15.03;;;10.10;;
2944;SDS011;1482;51.398;7.128;2023-06-24T06:40:22;11.27;;;8.97;;
2944;SDS011;1482;51.398;7.128;2023-06-24T06:42:48;12.20;;;11.07;;
2944;SDS011;1482;51.398;7.128;2023-06-24T06:45:14;10.10;;;9.10;;
2944;SDS011;1482;51.398;7.128;2023-06-24T06:47:40;10.57;;;9.53;;
2944;SDS011;1482;51.398;7.128;2023-06-24T06:50:05;13.07;;;10.00;;
2944;SDS011;1482;51.398;7.128;2023-06-24T06:52:32;10.50;;;9.33;;
2944;SDS011;1482;51.398;7.128;2023-06-24T06:54:58;14.83;;;8.60;;
2944;SDS011;1482;51.398;7.128;2023-06-24T06:57:23;9.37;;;8.50;;
2944;SDS011;1482;51.398;7.128;2023-06-24T06:59:50;11.37;;;10.23;;
2944;SDS011;1482;51.398;7.128;2023-06-24T07:02:16;9.43;;;8.53;;
2944;SDS011;1482;51.398;7.128;2023-06-24T07:04:42;10.47;;;9.57;;
2944;SDS011;1482;51.398;7.128;2023-06-24T07:07:08;10.10;;;9.30;;
2944;SDS011;1482;51.398;7.128;2023-06-24T07:09:33;9.60;;;8.70;;
2944;SDS011;1482;51.398;7.128;2023-06-24T07:11:59;9.50;;;8.60;;
2944;SDS011;1482;51.398;7.128;2023-06-24T07:14:24;9.70;;;8.70;;
2944;SDS011;1482;51.398;7.128;2023-06-24T07:16:50;10.10;;;8.63;;
2944;SDS011;1482;51.398;7.128;2023-06-24T07:19:16;10.53;;;9.53;;
2944;SDS011;1482;51.398;7.128;2023-06-24T07:21:41;9.83;;;8.87;;
2944;SDS011;1482;51.398;7.128;2023-06-24T07:24:07;9.17;;;8.37;;
2944;SDS011;1482;51.398;7.128;2023-06-24T07:26:34;10.30;;;9.53;;
2944;SDS011;1482;51.398;7.128;2023-06-24T07:28:59;9.60;;;8.70;;
2944;SDS011;1482;51.398;7.128;2023-06-24T07:31:25;11.30;;;10.20;;
2944;SDS011;1482;51.398;7.128;2023-06-24T07:33:50;13.40;;;10.50;;
2944;SDS011;1482;51.398;7.128;2023-06-24T07:36:16;13.20;;;12.10;;
2944;SDS011;1482;51.398;7.128;2023-06-24T07:38:42;13.47;;;12.10;;
2944;SDS011;1482;51.398;7.128;2023-06-24T07:41:07;11.03;;;10.13;;
2944;SDS011;1482;51.398;7.128;2023-06-24T07:43:33;13.53;;;12.13;;
2944;SDS011;1482;51.398;7.128;2023-06-24T07:45:58;12.83;;;10.70;;
2944;SDS011;1482;51.398;7.128;2023-06-24T07:48:24;14.30;;;13.10;;
2944;SDS011;1482;51.398;7.128;2023-06-24T07:50:50;15.13;;;13.00;;
2944;SDS011;1482;51.398;7.128;2023-06-24T07:53:15;13.93;;;12.63;;
2944;SDS011;1482;51.398;7.128;2023-06-24T07:55:41;13.80;;;12.40;;
2944;SDS011;1482;51.398;7.128;2023-06-24T07:58:06;15.40;;;14.07;;
2944;SDS011;1482;51.398;7.128;2023-06-24T08:00:32;13.07;;;12.07;;
2944;SDS011;1482;51.398;7.128;2023-06-24T08:02:59;14.37;;;13.17;;
2944;SDS011;1482;51.398;7.128;2023-06-24T08:05:25;14.00;;;12.80;;
2944;SDS011;1482;51.398;7.128;2023-06-24T08:07:51;12.70;;;11.63;;
2944;SDS011;1482;51.398;7.128;2023-06-24T08:10:17;13.63;;;12.47;;
2944;SDS011;1482;51.398;7.128;2023-06-24T08:12:42;15.40;;;14.20;;
2944;SDS011;1482;51.398;7.128;2023-06-24T08:15:08;16.17;;;14.90;;
2944;SDS011;1482;51.398;7.128;2023-06-24T08:17:34;14.60;;;13.40;;
2944;SDS011;1482;51.398;7.128;2023-06-24T08:20:01;14.77;;;13.47;;
2944;SDS011;1482;51.398;7.128;2023-06-24T08:22:28;16.50;;;15.10;;
2944;SDS011;1482;51.398;7.128;2023-06-24T08:24:53;15.60;;;14.20;;
2944;SDS011;1482;51.398;7.128;2023-06-24T08:30:41;15.73;;;14.30;;
2944;SDS011;1482;51.398;7.128;2023-06-24T08:33:06;14.07;;;12.97;;
2944;SDS011;1482;51.398;7.128;2023-06-24T08:35:32;13.50;;;12.40;;
2944;SDS011;1482;51.398;7.128;2023-06-24T08:37:57;13.30;;;12.20;;
2944;SDS011;1482;51.398;7.128;2023-06-24T08:40:23;12.27;;;11.07;;
2944;SDS011;1482;51.398;7.128;2023-06-24T08:42:48;12.37;;;11.13;;
2944;SDS011;1482;51.398;7.128;2023-06-24T08:45:14;12.57;;;11.57;;
2944;SDS011;1482;51.398;7.128;2023-06-24T08:47:40;13.93;;;12.40;;
2944;SDS011;1482;51.398;7.128;2023-06-24T08:50:12;14.53;;;13.23;;
2944;SDS011;1482;51.398;7.128;2023-06-24T08:52:45;10.80;;;9.90;;
2944;SDS011;1482;51.398;7.128;2023-06-24T08:55:16;11.67;;;10.53;;
2944;SDS011;1482;51.398;7.128;2023-06-24T08:57:42;11.67;;;10.57;;
2944;SDS011;1482;51.398;7.128;2023-06-24T09:00:08;12.27;;;11.17;;
2944;SDS011;1482;51.398;7.128;2023-06-24T09:02:35;11.70;;;10.50;;
2944;SDS011;1482;51.398;7.128;2023-06-24T09:05:03;10.27;;;9.27;;
2944;SDS011;1482;51.398;7.128;2023-06-24T09:07:30;9.10;;;8.23;;
2944;SDS011;1482;51.398;7.128;2023-06-24T09:09:56;10.03;;;8.93;;
2944;SDS011;1482;51.398;7.128;2023-06-24T09:12:22;15.50;;;9.30;;
2944;SDS011;1482;51.398;7.128;2023-06-24T09:14:49;11.43;;;10.00;;
2944;SDS011;1482;51.398;7.128;2023-06-24T09:17:15;10.40;;;8.80;;
2944;SDS011;1482;51.398;7.128;2023-06-24T09:19:41;9.30;;;8.40;;
2944;SDS011;1482;51.398;7.128;2023-06-24T09:22:07;8.57;;;7.73;;
2944;SDS011;1482;51.398;7.128;2023-06-24T09:24:34;10.93;;;7.43;;
2944;SDS011;1482;51.398;7.128;2023-06-24T09:27:01;8.90;;;8.00;;
2944;SDS011;1482;51.398;7.128;2023-06-24T09:29:28;7.97;;;7.17;;
2944;SDS011;1482;51.398;7.128;2023-06-24T09:31:57;9.17;;;6.50;;
2944;SDS011;1482;51.398;7.128;2023-06-24T09:34:24;7.43;;;5.53;;
2944;SDS011;1482;51.398;7.128;2023-06-24T09:36:52;8.17;;;7.37;;
2944;SDS011;1482;51.398;7.128;2023-06-24T09:39:18;9.23;;;7.90;;
2944;SDS011;1482;51.398;7.128;2023-06-24T09:41:53;8.50;;;7.10;;
2944;SDS011;1482;51.398;7.128;2023-06-24T09:44:19;8.23;;;7.43;;
2944;SDS011;1482;51.398;7.128;2023-06-24T09:46:45;6.77;;;6.13;;
2944;SDS011;1482;51.398;7.128;2023-06-24T09:49:10;9.50;;;6.67;;
2944;SDS011;1482;51.398;7.128;2023-06-24T09:51:37;5.60;;;5.00;;
2944;SDS011;1482;51.398;7.128;2023-06-24T09:54:07;7.60;;;6.27;;
2944;SDS011;1482;51.398;7.128;2023-06-24T09:56:37;7.07;;;6.37;;
2944;SDS011;1482;51.398;7.128;2023-06-24T09:59:07;7.30;;;6.70;;
2944;SDS011;1482;51.398;7.128;2023-06-24T10:01:35;6.40;;;5.77;;
2944;SDS011;1482;51.398;7.128;2023-06-24T10:04:04;6.93;;;6.20;;
2944;SDS011;1482;51.398;7.128;2023-06-24T10:06:31;6.57;;;5.97;;
2944;SDS011;1482;51.398;7.128;2023-06-24T10:08:58;11.13;;;7.40;;
2944;SDS011;1482;51.398;7.128;2023-06-24T10:11:24;7.63;;;6.93;;
2944;SDS011;1482;51.398;7.128;2023-06-24T10:13:50;8.40;;;7.10;;
2944;SDS011;1482;51.398;7.128;2023-06-24T10:16:16;6.50;;;5.73;;
2944;SDS011;1482;51.398;7.128;2023-06-24T10:18:43;8.60;;;6.87;;
2944;SDS011;1482;51.398;7.128;2023-06-24T10:21:09;9.23;;;8.17;;
2944;SDS011;1482;51.398;7.128;2023-06-24T10:23:39;8.53;;;6.60;;
2944;SDS011;1482;51.398;7.128;2023-06-24T10:26:26;6.60;;;5.83;;
2944;SDS011;1482;51.398;7.128;2023-06-24T10:39:34;5.90;;;5.30;;
2944;SDS011;1482;51.398;7.128;2023-06-24T10:42:24;5.60;;;5.10;;
2944;SDS011;1482;51.398;7.128;2023-06-24T10:44:49;8.50;;;6.47;;
2944;SDS011;1482;51.398;7.128;2023-06-24T10:47:15;9.83;;;5.40;;
2944;SDS011;1482;51.398;7.128;2023-06-24T10:49:41;5.70;;;4.60;;
2944;SDS011;1482;51.398;7.128;2023-06-24T10:52:10;4.90;;;4.40;;
2944;SDS011;1482;51.398;7.128;2023-06-24T10:54:37;5.03;;;4.53;;
2944;SDS011;1482;51.398;7.128;2023-06-24T10:57:03;6.73;;;4.43;;
2944;SDS011;1482;51.398;7.128;2023-06-24T10:59:42;5.80;;;5.00;;
2944;SDS011;1482;51.398;7.128;2023-06-24T11:02:16;6.10;;;4.57;;
2944;SDS011;1482;51.398;7.128;2023-06-24T11:04:43;5.77;;;4.43;;
2944;SDS011;1482;51.398;7.128;2023-06-24T11:07:12;5.30;;;4.80;;
2944;SDS011;1482;51.398;7.128;2023-06-24T11:09:39;5.90;;;4.70;;
2944;SDS011;1482;51.398;7.128;2023-06-24T11:12:08;10.20;;;5.90;;
2944;SDS011;1482;51.398;7.128;2023-06-24T11:14:35;4.67;;;4.23;;
2944;SDS011;1482;51.398;7.128;2023-06-24T11:17:01;10.90;;;4.77;;
2944;SDS011;1482;51.398;7.128;2023-06-24T11:19:28;6.10;;;5.00;;
2944;SDS011;1482;51.398;7.128;2023-06-24T11:21:56;5.73;;;4.33;;
2944;SDS011;1482;51.398;7.128;2023-06-24T11:24:24;6.53;;;5.30;;
2944;SDS011;1482;51.398;7.128;2023-06-24T11:26:50;5.93;;;5.43;;
2944;SDS011;1482;51.398;7.128;2023-06-24T11:29:16;4.50;;;4.10;;
2944;SDS011;1482;51.398;7.128;2023-06-24T11:31:42;5.83;;;5.03;;
2944;SDS011;1482;51.398;7.128;2023-06-24T11:34:09;6.73;;;4.53;;
2944;SDS011;1482;51.398;7.128;2023-06-24T11:36:35;6.43;;;4.63;;
2944;SDS011;1482;51.398;7.128;2023-06-24T11:39:01;5.07;;;4.50;;
2944;SDS011;1482;51.398;7.128;2023-06-24T11:41:27;5.30;;;4.17;;
2944;SDS011;1482;51.398;7.128;2023-06-24T11:43:53;8.40;;;5.40;;
2944;SDS011;1482;51.398;7.128;2023-06-24T11:46:28;5.30;;;4.67;;
2944;SDS011;1482;51.398;7.128;2023-06-24T11:49:07;5.68;;;5.18;;
2944;SDS011;1482;51.398;7.128;2023-06-24T11:51:34;6.70;;;5.83;;
2944;SDS011;1482;51.398;7.128;2023-06-24T11:54:03;5.60;;;5.00;;
2944;SDS011;1482;51.398;7.128;2023-06-24T11:56:37;5.63;;;4.93;;
2944;SDS011;1482;51.398;7.128;2023-06-24T11:59:04;8.23;;;6.60;;
2944;SDS011;1482;51.398;7.128;2023-06-24T12:01:33;6.07;;;5.50;;
2944;SDS011;1482;51.398;7.128;2023-06-24T12:04:09;11.20;;;5.77;;
2944;SDS011;1482;51.398;7.128;2023-06-24T12:06:38;7.00;;;5.10;;
2944;SDS011;1482;51.398;7.128;2023-06-24T12:09:05;5.20;;;4.70;;
2944;SDS011;1482;51.398;7.128;2023-06-24T12:11:31;5.70;;;5.20;;
2944;SDS011;1482;51.398;7.128;2023-06-24T12:13:56;6.37;;;5.50;;
2944;SDS011;1482;51.398;7.128;2023-06-24T12:16:22;4.57;;;4.27;;
2944;SDS011;1482;51.398;7.128;2023-06-24T12:18:48;5.30;;;4.80;;
2944;SDS011;1482;51.398;7.128;2023-06-24T12:21:13;5.73;;;5.20;;
2944;SDS011;1482;51.398;7.128;2023-06-24T12:23:39;5.20;;;4.70;;
2944;SDS011;1482;51.398;7.128;2023-06-24T12:26:04;6.87;;;4.90;;
2944;SDS011;1482;51.398;7.128;2023-06-24T12:28:30;5.80;;;5.30;;
2944;SDS011;1482;51.398;7.128;2023-06-24T12:30:55;5.80;;;4.83;;
2944;SDS011;1482;51.398;7.128;2023-06-24T12:33:21;5.30;;;4.80;;
2944;SDS011;1482;51.398;7.128;2023-06-24T12:35:48;6.10;;;5.50;;
2944;SDS011;1482;51.398;7.128;2023-06-24T12:38:13;5.37;;;4.90;;
2944;SDS011;1482;51.398;7.128;2023-06-24T12:40:39;5.70;;;5.17;;
2944;SDS011;1482;51.398;7.128;2023-06-24T12:43:04;5.40;;;5.00;;
2944;SDS011;1482;51.398;7.128;2023-06-24T12:45:30;5.30;;;4.80;;
2944;SDS011;1482;51.398;7.128;2023-06-24T12:47:55;6.10;;;5.57;;
2944;SDS011;1482;51.398;7.128;2023-06-24T12:50:21;8.37;;;4.80;;
2944;SDS011;1482;51.398;7.128;2023-06-24T12:52:47;5.63;;;4.73;;
2944;SDS011;1482;51.398;7.128;2023-06-24T12:55:12;5.90;;;5.10;;
2944;SDS011;1482;51.398;7.128;2023-06-24T12:57:38;8.90;;;6.00;;
2944;SDS011;1482;51.398;7.128;2023-06-24T13:00:04;5.97;;;5.47;;
2944;SDS011;1482;51.398;7.128;2023-06-24T13:02:31;5.97;;;5.17;;
2944;SDS011;1482;51.398;7.128;2023-06-24T13:04:57;5.87;;;5.27;;
2944;SDS011;1482;51.398;7.128;2023-06-24T13:07:23;8.20;;;5.13;;
2944;SDS011;1482;51.398;7.128;2023-06-24T13:09:48;7.20;;;5.80;;
2944;SDS011;1482;51.398;7.128;2023-06-24T13:12:14;5.07;;;4.67;;
2944;SDS011;1482;51.398;7.128;2023-06-24T13:14:39;5.50;;;4.97;;
2944;SDS011;1482;51.398;7.128;2023-06-24T13:17:05;4.97;;;4.47;;
2944;SDS011;1482;51.398;7.128;2023-06-24T13:19:30;5.00;;;4.60;;
2944;SDS011;1482;51.398;7.128;2023-06-24T13:21:57;4.80;;;4.40;;
2944;SDS011;1482;51.398;7.128;2023-06-24T13:24:23;4.67;;;3.77;;
2944;SDS011;1482;51.398;7.128;2023-06-24T13:26:50;4.50;;;4.10;;
2944;SDS011;1482;51.398;7.128;2023-06-24T13:29:16;5.17;;;4.40;;
2944;SDS011;1482;51.398;7.128;2023-06-24T13:31:41;6.83;;;5.00;;
2944;SDS011;1482;51.398;7.128;2023-06-24T13:34:07;4.17;;;3.77;;
2944;SDS011;1482;51.398;7.128;2023-06-24T13:36:33;6.47;;;4.13;;
2944;SDS011;1482;51.398;7.128;2023-06-24T13:39:00;6.90;;;5.00;;
2944;SDS011;1482;51.398;7.128;2023-06-24T13:41:30;4.57;;;4.17;;
2944;SDS011;1482;51.398;7.128;2023-06-24T13:43:58;5.20;;;4.10;;
2944;SDS011;1482;51.398;7.128;2023-06-24T13:46:24;4.80;;;4.40;;
2944;SDS011;1482;51.398;7.128;2023-06-24T13:48:50;4.70;;;3.43;;
2944;SDS011;1482;51.398;7.128;2023-06-24T13:51:16;4.53;;;4.13;;
2944;SDS011;1482;51.398;7.128;2023-06-24T13:53:43;4.97;;;4.30;;
2944;SDS011;1482;51.398;7.128;2023-06-24T13:56:08;5.30;;;4.80;;
2944;SDS011;1482;51.398;7.128;2023-06-24T13:58:34;5.00;;;4.50;;
2944;SDS011;1482;51.398;7.128;2023-06-24T14:00:59;4.80;;;4.30;;
2944;SDS011;1482;51.398;7.128;2023-06-24T14:03:25;4.60;;;4.20;;
2944;SDS011;1482;51.398;7.128;2023-06-24T14:05:50;4.80;;;4.40;;
2944;SDS011;1482;51.398;7.128;2023-06-24T14:08:16;6.97;;;4.57;;
2944;SDS011;1482;51.398;7.128;2023-06-24T14:10:41;5.67;;;4.73;;
2944;SDS011;1482;51.398;7.128;2023-06-24T14:13:07;4.37;;;3.97;;
2944;SDS011;1482;51.398;7.128;2023-06-24T14:15:32;5.63;;;4.60;;
2944;SDS011;1482;51.398;7.128;2023-06-24T14:17:58;5.33;;;4.93;;
2944;SDS011;1482;51.398;7.128;2023-06-24T14:20:23;4.93;;;4.53;;
2944;SDS011;1482;51.398;7.128;2023-06-24T14:22:50;5.37;;;4.87;;
2944;SDS011;1482;51.398;7.128;2023-06-24T14:25:16;5.13;;;4.30;;
2944;SDS011;1482;51.398;7.128;2023-06-24T14:27:41;4.43;;;4.03;;
2944;SDS011;1482;51.398;7.128;2023-06-24T14:30:07;5.00;;;4.50;;
2944;SDS011;1482;51.398;7.128;2023-06-24T14:32:33;5.70;;;5.13;;
2944;SDS011;1482;51.398;7.128;2023-06-24T14:34:59;6.07;;;4.80;;
2944;SDS011;1482;51.398;7.128;2023-06-24T14:37:24;5.27;;;4.77;;
2944;SDS011;1482;51.398;7.128;2023-06-24T14:39:50;4.70;;;4.30;;
2944;SDS011;1482;51.398;7.128;2023-06-24T14:42:15;4.30;;;4.00;;
2944;SDS011;1482;51.398;7.128;2023-06-24T14:44:41;4.73;;;4.33;;
2944;SDS011;1482;51.398;7.128;2023-06-24T14:47:06;5.73;;;4.53;;
2944;SDS011;1482;51.398;7.128;2023-06-24T14:49:32;4.87;;;4.47;;
2944;SDS011;1482;51.398;7.128;2023-06-24T14:51:57;5.13;;;4.70;;
2944;SDS011;1482;51.398;7.128;2023-06-24T14:54:23;7.10;;;4.13;;
2944;SDS011;1482;51.398;7.128;2023-06-24T14:56:48;3.97;;;3.40;;
2944;SDS011;1482;51.398;7.128;2023-06-24T14:59:14;4.40;;;4.00;;
2944;SDS011;1482;51.398;7.128;2023-06-24T15:01:39;4.67;;;4.27;;
2944;SDS011;1482;51.398;7.128;2023-06-24T15:04:05;4.53;;;4.10;;
2944;SDS011;1482;51.398;7.128;2023-06-24T15:06:30;4.40;;;4.00;;
2944;SDS011;1482;51.398;7.128;2023-06-24T15:08:56;5.20;;;4.40;;
2944;SDS011;1482;51.398;7.128;2023-06-24T15:11:21;5.83;;;4.60;;
2944;SDS011;1482;51.398;7.128;2023-06-24T15:13:47;4.83;;;4.40;;
2944;SDS011;1482;51.398;7.128;2023-06-24T15:16:12;4.60;;;4.17;;
2944;SDS011;1482;51.398;7.128;2023-06-24T15:18:47;6.80;;;4.27;;
2944;SDS011;1482;51.398;7.128;2023-06-24T15:21:14;5.97;;;4.30;;
2944;SDS011;1482;51.398;7.128;2023-06-24T15:23:40;6.37;;;3.67;;
2944;SDS011;1482;51.398;7.128;2023-06-24T15:26:06;5.20;;;4.00;;
2944;SDS011;1482;51.398;7.128;2023-06-24T15:28:32;8.37;;;4.90;;